createdAt,value
2022-12-17T00:02:14.992Z,19.17
2022-12-17T00:05:00.191Z,26.00
2022-12-17T00:07:45.193Z,18.00
2022-12-17T00:10:30.531Z,24.20
2022-12-17T00:13:15.668Z,22.40
2022-12-17T00:16:01.017Z,24.00
2022-12-17T00:18:46.168Z,23.57
2022-12-17T00:21:31.506Z,24.00
2022-12-17T00:24:16.853Z,24.73
2022-12-17T00:27:02.329Z,22.13
2022-12-17T00:29:47.930Z,22.03
2022-12-17T00:32:33.106Z,23.73
2022-12-17T00:35:18.360Z,22.50
2022-12-17T00:38:05.778Z,20.53
2022-12-17T00:41:04.684Z,23.40
2022-12-17T00:43:50.215Z,24.30
2022-12-17T00:46:35.335Z,23.57
2022-12-17T00:49:20.628Z,21.70
2022-12-17T00:52:05.784Z,22.83
2022-12-17T00:54:51.137Z,22.20
2022-12-17T00:57:37.870Z,22.00
2022-12-17T01:00:24.629Z,18.20
2022-12-17T01:03:10.084Z,22.27
2022-12-17T01:05:55.467Z,20.93
2022-12-17T01:08:41.522Z,24.90
2022-12-17T01:11:27.849Z,29.57
2022-12-17T01:14:13.094Z,23.13
2022-12-17T01:16:59.113Z,28.00
2022-12-17T01:19:44.615Z,22.90
2022-12-17T01:22:29.765Z,22.73
2022-12-17T01:25:15.006Z,18.70
2022-12-17T01:28:00.201Z,21.17
2022-12-17T01:30:45.943Z,20.10
2022-12-17T01:33:31.192Z,23.50
2022-12-17T01:36:17.358Z,20.70
2022-12-17T01:39:03.252Z,19.80
2022-12-17T01:41:49.006Z,23.37
2022-12-17T01:45:14.644Z,21.47
2022-12-17T01:48:11.988Z,23.17
2022-12-17T01:51:05.401Z,20.70
2022-12-17T01:53:57.239Z,24.50
2022-12-17T01:56:42.677Z,20.43
2022-12-17T01:59:28.816Z,22.67
2022-12-17T02:02:14.289Z,24.67
2022-12-17T02:04:59.909Z,24.23
2022-12-17T02:08:16.002Z,24.60
2022-12-17T02:11:23.448Z,25.23
2022-12-17T02:14:32.099Z,26.73
2022-12-17T02:17:24.651Z,24.57
2022-12-17T02:20:31.864Z,32.80
2022-12-17T02:23:44.729Z,28.80
2022-12-17T02:26:51.760Z,27.87
2022-12-17T02:29:39.293Z,34.93
2022-12-17T02:32:26.223Z,27.87
2022-12-17T02:35:12.474Z,29.23
2022-12-17T02:37:57.782Z,28.10
2022-12-17T02:40:43.484Z,24.80
2022-12-17T02:43:30.938Z,29.93
2022-12-17T02:46:16.853Z,26.07
2022-12-17T02:49:02.063Z,23.30
2022-12-17T02:51:48.063Z,21.93
2022-12-17T02:54:33.385Z,25.93
2022-12-17T02:57:18.712Z,23.23
2022-12-17T03:00:04.124Z,26.43
2022-12-17T03:02:49.741Z,26.90
2022-12-17T03:05:50.345Z,22.37
2022-12-17T03:08:35.551Z,28.30
2022-12-17T03:11:20.665Z,25.53
2022-12-17T03:14:06.127Z,19.60
2022-12-17T03:16:51.615Z,25.83
2022-12-17T03:19:36.994Z,25.37
2022-12-17T03:22:22.265Z,23.20
2022-12-17T03:25:07.539Z,26.47
2022-12-17T03:27:52.995Z,23.20
2022-12-17T03:30:39.187Z,23.20
2022-12-17T03:33:27.216Z,25.40
2022-12-17T03:36:13.224Z,21.97
2022-12-17T03:38:58.420Z,21.10
2022-12-17T03:41:43.698Z,20.87
2022-12-17T03:44:28.906Z,22.60
2022-12-17T03:47:14.141Z,22.83
2022-12-17T03:49:59.482Z,26.30
2022-12-17T03:52:44.608Z,22.57
2022-12-17T03:55:29.864Z,24.33
2022-12-17T03:58:15.158Z,24.50
2022-12-17T04:01:00.511Z,22.83
2022-12-17T04:03:45.765Z,30.37
2022-12-17T04:06:31.333Z,26.57
2022-12-17T04:09:16.845Z,25.40
2022-12-17T04:12:18.865Z,27.27
2022-12-17T04:15:04.460Z,23.17
2022-12-17T04:17:50.317Z,27.73
2022-12-17T04:20:35.979Z,33.73
2022-12-17T04:23:21.207Z,22.97
2022-12-17T04:26:06.336Z,24.60
2022-12-17T04:28:51.525Z,33.63
2022-12-17T04:31:36.914Z,30.03
2022-12-17T04:34:22.192Z,28.77
2022-12-17T04:37:07.472Z,31.40
2022-12-17T04:39:52.556Z,27.33
2022-12-17T04:42:37.852Z,43.93
2022-12-17T04:45:23.918Z,28.53
2022-12-17T04:48:09.652Z,28.80
2022-12-17T04:50:54.895Z,30.17
2022-12-17T04:53:40.095Z,24.60
2022-12-17T04:56:25.637Z,26.10
2022-12-17T04:59:10.894Z,26.90
2022-12-17T05:01:56.387Z,24.53
2022-12-17T05:04:41.718Z,27.23
2022-12-17T05:07:27.488Z,24.87
2022-12-17T05:10:12.789Z,27.30
2022-12-17T05:12:58.091Z,21.60
2022-12-17T05:15:47.131Z,28.90
2022-12-17T05:18:35.120Z,26.07
2022-12-17T05:21:20.472Z,28.67
2022-12-17T05:24:16.278Z,25.93
2022-12-17T05:27:01.644Z,31.20
2022-12-17T05:29:47.007Z,25.50
2022-12-17T05:32:32.355Z,24.80
2022-12-17T05:35:19.492Z,26.70
2022-12-17T05:38:12.371Z,28.57
2022-12-17T05:40:57.712Z,28.30
2022-12-17T05:43:42.932Z,24.80
2022-12-17T05:46:28.134Z,25.57
2022-12-17T05:49:13.688Z,26.43
2022-12-17T05:51:59.056Z,23.87
2022-12-17T05:54:44.367Z,29.23
2022-12-17T05:57:29.504Z,25.57
2022-12-17T06:00:14.744Z,27.17
2022-12-17T06:03:00.022Z,28.23
2022-12-17T06:05:45.825Z,25.13
2022-12-17T06:08:30.936Z,26.63
2022-12-17T06:11:19.622Z,27.00
2022-12-17T06:14:19.816Z,28.40
2022-12-17T06:17:05.010Z,26.80
2022-12-17T06:19:58.073Z,27.07
2022-12-17T06:22:43.188Z,22.70
2022-12-17T06:25:29.149Z,35.43
2022-12-17T06:28:20.060Z,26.70
2022-12-17T06:31:13.215Z,25.93
2022-12-17T06:33:59.376Z,27.77
2022-12-17T06:36:44.581Z,24.63
2022-12-17T06:39:29.757Z,25.23
2022-12-17T06:42:15.172Z,28.17
2022-12-17T06:45:00.482Z,29.00
2022-12-17T06:47:45.726Z,29.70
2022-12-17T06:50:30.884Z,40.63
2022-12-17T06:53:21.818Z,39.07
2022-12-17T06:56:06.993Z,21.83
2022-12-17T06:58:53.127Z,19.13
2022-12-17T07:01:39.117Z,17.70
2022-12-17T07:04:24.911Z,20.57
2022-12-17T07:07:10.165Z,17.37
2022-12-17T07:09:55.376Z,14.53
2022-12-17T07:12:42.603Z,16.50
2022-12-17T07:15:28.773Z,16.40
2022-12-17T07:18:20.386Z,16.40
2022-12-17T07:21:14.706Z,18.43
2022-12-17T07:24:00.347Z,26.80
2022-12-17T07:26:45.664Z,27.87
2022-12-17T07:29:30.874Z,29.27
2022-12-17T07:32:16.252Z,24.87
2022-12-17T07:35:01.905Z,25.40
2022-12-17T07:37:47.214Z,21.93
2022-12-17T07:40:32.623Z,15.37
2022-12-17T07:43:18.122Z,17.50
2022-12-17T07:46:03.552Z,17.80
2022-12-17T07:48:48.869Z,16.90
2022-12-17T07:51:34.169Z,12.57
2022-12-17T07:54:19.468Z,15.33
2022-12-17T07:57:05.013Z,15.63
2022-12-17T07:59:50.137Z,15.17
2022-12-17T08:02:49.069Z,16.60
2022-12-17T08:05:34.471Z,19.50
2022-12-17T08:08:29.850Z,20.10
2022-12-17T08:11:15.813Z,15.80
2022-12-17T08:14:01.504Z,15.50
2022-12-17T08:16:46.550Z,12.80
2022-12-17T08:19:32.579Z,18.13
2022-12-17T08:22:17.941Z,15.90
2022-12-17T08:25:03.309Z,13.40
2022-12-17T08:27:49.213Z,13.30
2022-12-17T08:30:35.056Z,14.50
2022-12-17T08:33:25.623Z,13.77
2022-12-17T08:36:16.194Z,12.17
2022-12-17T08:39:02.018Z,15.00
2022-12-17T08:41:54.021Z,12.60
2022-12-17T08:44:40.598Z,13.80
2022-12-17T08:47:26.353Z,13.47
2022-12-17T08:50:11.531Z,11.80
2022-12-17T08:52:57.003Z,16.87
2022-12-17T08:55:42.232Z,14.10
2022-12-17T08:58:28.165Z,12.23
2022-12-17T09:01:18.011Z,14.63
2022-12-17T09:04:06.206Z,11.27
2022-12-17T09:06:54.099Z,21.30
2022-12-17T09:09:39.140Z,12.30
2022-12-17T09:12:24.983Z,15.90
2022-12-17T09:15:10.181Z,13.50
2022-12-17T09:17:55.410Z,15.67
2022-12-17T09:20:40.694Z,12.37
2022-12-17T09:23:26.475Z,10.90
2022-12-17T09:26:15.204Z,14.87
2022-12-17T09:29:01.363Z,10.63
2022-12-17T09:31:46.779Z,11.60
2022-12-17T09:34:32.191Z,12.30
2022-12-17T09:37:17.499Z,14.30
2022-12-17T09:40:02.840Z,12.67
2022-12-17T09:43:00.347Z,21.97
2022-12-17T09:46:03.750Z,14.13
2022-12-17T09:49:19.567Z,14.20
2022-12-17T09:52:05.422Z,17.00
2022-12-17T09:55:05.085Z,12.37
2022-12-17T09:57:55.952Z,11.83
2022-12-17T10:00:47.210Z,14.87
2022-12-17T10:03:40.019Z,32.40
2022-12-17T10:06:38.518Z,13.10
2022-12-17T10:09:36.509Z,12.60
2022-12-17T10:12:35.494Z,11.67
2022-12-17T10:15:23.148Z,21.27
2022-12-17T10:18:08.934Z,13.47
2022-12-17T10:21:13.966Z,10.77
2022-12-17T10:23:59.269Z,10.37
2022-12-17T10:26:49.713Z,14.07
2022-12-17T10:29:47.429Z,11.33
2022-12-17T10:32:33.168Z,11.73
2022-12-17T10:35:42.428Z,11.00
2022-12-17T10:38:39.885Z,11.97
2022-12-17T10:41:44.804Z,11.40
2022-12-17T10:44:50.765Z,10.97
2022-12-17T10:47:46.772Z,15.37
2022-12-17T10:50:40.706Z,12.17
2022-12-17T10:53:42.627Z,13.10
2022-12-17T10:56:41.345Z,10.90
2022-12-17T10:59:32.312Z,13.50
2022-12-17T11:02:18.980Z,12.30
2022-12-17T11:05:11.936Z,11.47
2022-12-17T11:08:01.568Z,9.67
2022-12-17T11:11:00.696Z,11.57
2022-12-17T11:14:03.791Z,9.33
2022-12-17T11:17:12.478Z,12.30
2022-12-17T11:20:06.281Z,9.80
2022-12-17T11:23:16.958Z,12.00
2022-12-17T11:26:14.591Z,9.70
2022-12-17T11:28:59.603Z,9.07
2022-12-17T11:32:28.679Z,11.03
2022-12-17T11:35:37.436Z,9.20
2022-12-17T11:38:51.409Z,9.83
2022-12-17T11:41:58.866Z,11.97
2022-12-17T11:44:55.485Z,9.17
2022-12-17T11:48:01.310Z,10.20
2022-12-17T11:51:03.367Z,8.90
2022-12-17T11:54:42.950Z,8.43
2022-12-17T11:57:40.532Z,9.30
2022-12-17T12:00:39.166Z,11.40
2022-12-17T12:03:39.916Z,8.93
2022-12-17T12:07:02.261Z,11.83
2022-12-17T12:10:03.168Z,13.63
2022-12-17T12:13:16.726Z,9.20
2022-12-17T12:16:22.533Z,11.10
2022-12-17T12:19:27.279Z,10.23
2022-12-17T12:22:31.296Z,10.27
2022-12-17T12:25:59.392Z,9.50
2022-12-17T12:29:16.433Z,9.80
2022-12-17T12:32:21.025Z,9.33
2022-12-17T12:35:06.224Z,10.17
2022-12-17T12:37:53.521Z,12.23
2022-12-17T12:40:57.125Z,12.70
2022-12-17T12:43:54.504Z,11.50
2022-12-17T12:46:49.233Z,10.60
2022-12-17T12:49:41.852Z,10.10
2022-12-17T12:52:31.791Z,11.00
2022-12-17T12:55:17.051Z,12.33
2022-12-17T12:58:25.940Z,14.60
2022-12-17T13:01:13.510Z,10.67
2022-12-17T13:04:01.891Z,14.97
2022-12-17T13:06:55.271Z,11.30
2022-12-17T13:09:38.880Z,13.27
2022-12-17T13:12:05.593Z,12.53
2022-12-17T13:15:04.945Z,10.80
2022-12-17T13:17:38.057Z,9.90
2022-12-17T13:20:29.884Z,12.67
2022-12-17T13:23:14.757Z,12.67
2022-12-17T13:25:42.101Z,12.43
2022-12-17T13:28:30.879Z,10.70
2022-12-17T13:31:04.676Z,15.03
2022-12-17T13:33:37.633Z,14.43
2022-12-17T13:36:20.301Z,12.30
2022-12-17T13:39:28.448Z,10.87
2022-12-17T13:41:57.973Z,11.93
2022-12-17T13:44:45.073Z,14.07
2022-12-17T13:47:31.793Z,11.70
2022-12-17T13:52:49.572Z,10.20
2022-12-17T13:55:26.613Z,13.30
2022-12-17T13:57:54.356Z,10.00
2022-12-17T14:00:30.699Z,10.30
2022-12-17T14:02:59.737Z,13.90
2022-12-17T14:05:38.722Z,12.73
2022-12-17T14:08:07.087Z,11.23
2022-12-17T14:10:34.524Z,15.67
2022-12-17T14:13:12.017Z,13.47
2022-12-17T14:15:39.155Z,15.30
2022-12-17T14:18:06.221Z,11.77
2022-12-17T14:20:36.048Z,17.67
2022-12-17T14:23:08.565Z,11.43
2022-12-17T14:25:42.664Z,10.57
2022-12-17T14:28:33.632Z,12.10
2022-12-17T14:31:26.081Z,10.60
2022-12-17T14:34:11.200Z,10.47
2022-12-17T14:36:42.325Z,11.70
2022-12-17T14:39:21.287Z,15.43
2022-12-17T14:42:07.041Z,13.57
2022-12-17T14:44:34.440Z,12.33
2022-12-17T14:47:28.723Z,8.40
2022-12-17T14:50:08.184Z,10.83
2022-12-17T14:52:40.057Z,12.47
2022-12-17T14:55:32.458Z,10.53
2022-12-17T14:58:17.595Z,11.30
2022-12-17T15:00:54.238Z,13.97
2022-12-17T15:03:31.645Z,13.80
2022-12-17T15:06:05.317Z,10.27
2022-12-17T15:08:37.294Z,10.70
2022-12-17T15:11:04.578Z,10.10
2022-12-17T15:13:31.748Z,13.03
2022-12-17T15:15:58.688Z,9.40
2022-12-17T15:18:25.564Z,9.40
2022-12-17T15:20:53.086Z,11.33
2022-12-17T15:23:22.064Z,7.60
2022-12-17T15:25:52.034Z,10.60
2022-12-17T15:28:20.689Z,7.80
2022-12-17T15:30:48.727Z,7.77
2022-12-17T15:33:16.189Z,9.90
2022-12-17T15:35:43.577Z,10.60
2022-12-17T15:38:12.400Z,9.60
2022-12-17T15:40:40.178Z,9.23
2022-12-17T15:43:12.893Z,7.70
2022-12-17T15:45:47.127Z,7.23
2022-12-17T15:48:17.733Z,7.17
2022-12-17T15:50:44.572Z,8.70
2022-12-17T15:53:11.769Z,11.13
2022-12-17T15:55:39.575Z,12.70
2022-12-17T15:58:07.787Z,9.00
2022-12-17T16:00:35.185Z,10.70
2022-12-17T16:03:02.237Z,8.03
2022-12-17T16:05:29.234Z,8.60
2022-12-17T16:07:59.184Z,9.57
2022-12-17T16:10:26.224Z,10.20
2022-12-17T16:12:53.075Z,10.10
2022-12-17T16:15:19.906Z,6.17
2022-12-17T16:17:46.852Z,9.23
2022-12-17T16:20:14.127Z,7.03
2022-12-17T16:22:41.058Z,10.27
2022-12-17T16:25:08.553Z,9.90
2022-12-17T16:27:35.527Z,13.33
2022-12-17T16:30:03.648Z,10.00
2022-12-17T16:32:36.060Z,8.07
2022-12-17T16:35:04.736Z,9.87
2022-12-17T16:37:31.777Z,7.70
2022-12-17T16:40:00.344Z,12.67
2022-12-17T16:42:28.172Z,8.53
2022-12-17T16:44:55.089Z,9.00
2022-12-17T16:47:21.945Z,10.37
2022-12-17T16:49:53.013Z,10.30
2022-12-17T16:52:19.881Z,8.80
2022-12-17T16:54:46.859Z,9.10
2022-12-17T16:57:13.883Z,9.23
2022-12-17T16:59:40.807Z,9.17
2022-12-17T17:02:14.145Z,11.10
2022-12-17T17:04:41.301Z,8.97
2022-12-17T17:07:08.258Z,8.70
2022-12-17T17:09:35.193Z,10.80
2022-12-17T17:12:02.092Z,11.03
2022-12-17T17:14:29.029Z,9.13
2022-12-17T17:16:56.059Z,9.07
2022-12-17T17:19:22.945Z,9.17
2022-12-17T17:21:52.817Z,9.43
2022-12-17T17:24:22.830Z,7.30
2022-12-17T17:26:51.997Z,8.20
2022-12-17T17:29:19.351Z,8.00
2022-12-17T17:32:09.379Z,11.50
2022-12-17T17:34:33.650Z,8.40
2022-12-17T17:37:00.514Z,8.27
2022-12-17T17:39:27.571Z,10.07
2022-12-17T17:41:54.534Z,7.07
2022-12-17T17:44:21.438Z,9.53
2022-12-17T17:46:48.534Z,8.30
2022-12-17T17:49:16.258Z,7.90
2022-12-17T17:54:31.582Z,9.60
2022-12-17T17:56:58.551Z,9.50
2022-12-17T17:59:32.945Z,9.80
2022-12-17T18:02:02.289Z,31.73
2022-12-17T18:04:29.670Z,19.03
2022-12-17T18:09:43.674Z,7.23
2022-12-17T18:12:28.897Z,10.27
2022-12-17T18:17:44.276Z,7.33
2022-12-17T18:20:11.805Z,9.37
2022-12-17T18:22:38.728Z,6.90
2022-12-17T18:25:05.963Z,6.90
2022-12-17T18:27:32.819Z,6.97
2022-12-17T18:30:00.076Z,8.30
2022-12-17T18:32:27.190Z,7.60
2022-12-17T18:34:54.294Z,7.07
2022-12-17T18:37:21.303Z,6.50
2022-12-17T18:39:49.081Z,9.40
2022-12-17T18:42:34.253Z,6.67
2022-12-17T18:45:02.622Z,7.20
2022-12-17T18:47:29.781Z,8.37
2022-12-17T18:49:57.377Z,6.63
2022-12-17T18:52:24.691Z,7.13
2022-12-17T18:54:51.626Z,6.80
2022-12-17T18:57:18.579Z,11.43
2022-12-17T18:59:45.453Z,5.53
2022-12-17T19:02:13.386Z,6.77
2022-12-17T19:04:40.758Z,6.70
2022-12-17T19:07:07.796Z,5.73
2022-12-17T19:09:35.727Z,6.33
2022-12-17T19:12:05.904Z,5.17
2022-12-17T19:14:33.070Z,17.40
2022-12-17T19:17:00.464Z,10.30
2022-12-17T19:19:27.838Z,7.90
2022-12-17T19:21:55.844Z,6.50
2022-12-17T19:24:24.007Z,8.53
2022-12-17T19:26:52.227Z,5.97
2022-12-17T19:29:20.908Z,7.17
2022-12-17T19:31:48.945Z,6.43
2022-12-17T19:34:17.965Z,5.03
2022-12-17T19:36:45.972Z,7.70
2022-12-17T19:39:16.595Z,5.13
2022-12-17T19:41:44.161Z,7.47
2022-12-17T19:44:20.914Z,5.80
2022-12-17T19:46:48.206Z,7.40
2022-12-17T19:49:16.590Z,5.13
2022-12-17T19:51:44.844Z,6.90
2022-12-17T19:54:14.900Z,4.87
2022-12-17T19:56:44.403Z,6.10
2022-12-17T19:59:12.628Z,7.57
2022-12-17T20:01:46.012Z,7.00
2022-12-17T20:04:15.868Z,5.67
2022-12-17T20:06:44.054Z,7.47
2022-12-17T20:09:11.703Z,4.90
2022-12-17T20:11:39.393Z,7.03
2022-12-17T20:14:30.653Z,5.97
2022-12-17T20:17:02.205Z,7.97
2022-12-17T20:19:32.506Z,6.03
2022-12-17T20:22:02.428Z,5.87
2022-12-17T20:24:31.897Z,5.17
2022-12-17T20:27:00.345Z,4.60
2022-12-17T20:29:27.578Z,6.00
2022-12-17T20:31:55.480Z,5.43
2022-12-17T20:34:23.485Z,5.70
2022-12-17T20:36:53.876Z,6.40
2022-12-17T20:39:26.621Z,4.67
2022-12-17T20:41:54.518Z,7.23
2022-12-17T20:44:21.445Z,7.33
2022-12-17T20:46:48.325Z,7.23
2022-12-17T20:49:15.203Z,8.50
2022-12-17T20:51:42.208Z,6.03
2022-12-17T20:54:10.831Z,7.47
2022-12-17T20:56:40.104Z,5.37
2022-12-17T20:59:11.514Z,5.60
2022-12-17T21:01:38.494Z,6.60
2022-12-17T21:04:09.106Z,6.47
2022-12-17T21:06:43.557Z,5.40
2022-12-17T21:09:11.763Z,5.77
2022-12-17T21:11:40.404Z,14.70
2022-12-17T21:14:11.649Z,35.10
2022-12-17T21:16:40.137Z,15.90
2022-12-17T21:19:09.185Z,7.80
2022-12-17T21:21:38.263Z,6.10
2022-12-17T21:24:06.629Z,9.07
2022-12-17T21:26:39.253Z,6.70
2022-12-17T21:29:07.959Z,6.20
2022-12-17T21:31:42.355Z,8.77
2022-12-17T21:34:17.314Z,9.10
2022-12-17T21:36:45.513Z,7.97
2022-12-17T21:39:14.716Z,9.83
2022-12-17T21:42:03.930Z,8.87
2022-12-17T21:44:30.970Z,10.17
2022-12-17T21:46:57.910Z,7.77
2022-12-17T21:49:25.083Z,9.17
2022-12-17T21:51:52.193Z,9.67
2022-12-17T21:54:20.177Z,8.57
2022-12-17T21:56:47.930Z,7.43
2022-12-17T21:59:15.578Z,5.83
2022-12-17T22:01:42.627Z,12.07
2022-12-17T22:04:09.789Z,10.00
2022-12-17T22:06:42.844Z,13.67
2022-12-17T22:09:16.888Z,10.00
2022-12-17T22:12:22.297Z,9.87
2022-12-17T22:14:49.327Z,9.70
2022-12-17T22:17:16.345Z,10.83
2022-12-17T22:19:43.226Z,10.83
2022-12-17T22:22:10.159Z,7.90
2022-12-17T22:24:37.147Z,10.77
2022-12-17T22:27:05.127Z,9.20
2022-12-17T22:29:54.700Z,11.33
2022-12-17T22:32:40.613Z,11.50
2022-12-17T22:36:42.725Z,10.80
2022-12-17T22:39:53.820Z,9.90
2022-12-17T22:44:29.172Z,10.43
2022-12-17T22:44:39.382Z,10.60
2022-12-17T22:46:16.878Z,12.10
2022-12-17T22:48:44.152Z,12.23
2022-12-17T22:51:12.315Z,15.17
2022-12-17T22:53:45.446Z,11.57
2022-12-17T22:56:22.599Z,10.53
2022-12-17T22:58:59.377Z,8.70
2022-12-17T23:01:26.639Z,8.20
2022-12-17T23:03:59.182Z,10.80
2022-12-17T23:06:27.363Z,10.80
2022-12-17T23:08:55.126Z,10.60
2022-12-17T23:11:26.384Z,8.63
2022-12-17T23:13:54.360Z,10.33
2022-12-17T23:16:21.830Z,12.87
2022-12-17T23:18:50.681Z,9.17
2022-12-17T23:21:22.127Z,8.00
2022-12-17T23:23:49.061Z,9.20
2022-12-17T23:26:20.764Z,8.60
2022-12-17T23:28:48.464Z,9.03
2022-12-17T23:31:19.539Z,8.03
2022-12-17T23:33:47.276Z,9.17
2022-12-17T23:36:19.188Z,10.43
2022-12-17T23:38:47.766Z,9.23
2022-12-17T23:41:21.891Z,10.10
2022-12-17T23:43:50.253Z,8.67
2022-12-17T23:46:18.528Z,8.17
2022-12-17T23:48:47.437Z,9.17
2022-12-17T23:51:21.289Z,9.93
2022-12-17T23:53:48.441Z,8.53
2022-12-17T23:56:26.214Z,9.50
2022-12-17T23:58:56.444Z,10.57
